Time;durP1;ratioP1;P1;durP2;ratioP2;P2;SDS_P1;SDS_P2;PMS_P1;PMS_P2;Temp;Humidity;BMP_temperature;BMP_pressure;BME280_temperature;BME280_humidity;BME280_pressure;Samples;Min_cycle;Max_cycle;Signal;HPM_P1;HPM_P2
2022/06/25 00:01:15;;;;;;;17.02;6.32;;;26.90;99.90;;;;;;6198395;23;20004;-92
2022/06/25 00:03:42;;;;;;;20.48;6.63;;;26.90;99.90;;;;;;6197931;23;20008;-91
2022/06/25 00:06:10;;;;;;;19.50;7.15;;;26.70;99.90;;;;;;6196857;22;20078;-92
2022/06/25 00:08:37;;;;;;;23.90;6.97;;;26.70;99.90;;;;;;6196878;22;20438;-91
2022/06/25 00:11:05;;;;;;;23.38;7.28;;;26.60;99.90;;;;;;6197746;23;20486;-91
2022/06/25 00:13:33;;;;;;;14.38;6.40;;;26.50;99.90;;;;;;6197355;23;20095;-91
2022/06/25 00:16:01;;;;;;;18.55;6.38;;;26.40;99.90;;;;;;6197952;23;20423;-90
2022/06/25 00:18:28;;;;;;;19.45;6.60;;;26.40;99.90;;;;;;6196448;22;20027;-91
2022/06/25 00:20:54;;;;;;;18.25;6.47;;;26.40;99.90;;;;;;6173677;23;20008;-92
2022/06/25 00:23:21;;;;;;;21.80;7.53;;;26.40;99.90;;;;;;6197354;22;20058;-92
2022/06/25 00:25:54;;;;;;;16.63;7.05;;;26.30;99.90;;;;;;6196940;23;20012;-92
2022/06/25 00:28:20;;;;;;;24.10;7.28;;;26.30;99.90;;;;;;6196531;23;20078;-92
2022/06/25 00:30:47;;;;;;;22.63;6.82;;;26.20;99.90;;;;;;6196807;23;20015;-92
2022/06/25 00:33:13;;;;;;;24.75;7.18;;;26.10;99.90;;;;;;6197014;23;20008;-93
2022/06/25 00:35:40;;;;;;;17.35;7.53;;;26.00;99.90;;;;;;6196959;23;20099;-92
2022/06/25 00:38:07;;;;;;;21.42;7.45;;;26.00;99.90;;;;;;6197204;23;20031;-92
2022/06/25 00:40:34;;;;;;;21.42;6.85;;;25.90;99.90;;;;;;6197025;23;20012;-92
2022/06/25 00:43:02;;;;;;;20.20;7.70;;;25.80;99.90;;;;;;6196662;23;20050;-92
2022/06/25 00:45:29;;;;;;;19.88;7.25;;;25.80;99.90;;;;;;6196752;23;20138;-92
2022/06/25 00:47:56;;;;;;;22.60;7.97;;;25.70;99.90;;;;;;6201861;23;20087;-95
2022/06/25 00:50:22;;;;;;;27.00;7.65;;;25.70;99.90;;;;;;6197993;23;20437;-93
2022/06/25 00:52:54;;;;;;;19.67;7.28;;;25.60;99.90;;;;;;6197865;23;20020;-93
2022/06/25 00:55:23;;;;;;;17.50;7.32;;;25.50;99.90;;;;;;6197625;22;20375;-92
2022/06/25 00:57:52;;;;;;;21.65;7.43;;;25.40;99.90;;;;;;6197398;23;20110;-95
2022/06/25 01:00:20;;;;;;;17.73;7.72;;;25.40;99.90;;;;;;6197232;23;20095;-93
2022/06/25 01:02:47;;;;;;;24.25;7.30;;;25.40;99.90;;;;;;6197063;23;20001;-93
2022/06/25 01:05:16;;;;;;;21.83;7.55;;;25.30;99.90;;;;;;6197186;23;20039;-93
2022/06/25 01:07:47;;;;;;;16.15;6.55;;;25.40;99.90;;;;;;6197458;23;20004;-93
2022/06/25 01:10:16;;;;;;;23.88;8.05;;;25.40;99.90;;;;;;6231691;23;20051;-91
2022/06/25 01:12:43;;;;;;;19.25;6.93;;;25.40;99.90;;;;;;6224669;23;20038;-90
2022/06/25 01:15:18;;;;;;;24.60;7.05;;;25.60;99.90;;;;;;6214297;23;20008;-92
2022/06/25 01:17:50;;;;;;;22.75;7.30;;;25.60;99.90;;;;;;6204909;23;20350;-94
2022/06/25 01:20:19;;;;;;;18.85;7.28;;;25.70;99.90;;;;;;6200072;23;20426;-93
2022/06/25 01:22:46;;;;;;;22.48;6.85;;;25.80;99.90;;;;;;6196899;23;20008;-92
2022/06/25 01:25:19;;;;;;;20.27;6.97;;;25.90;99.90;;;;;;6196814;23;20087;-92
2022/06/25 01:27:47;;;;;;;25.75;7.82;;;25.80;99.90;;;;;;6196946;23;20012;-92
2022/06/25 01:30:15;;;;;;;18.38;7.35;;;25.90;99.90;;;;;;6197037;23;20081;-94
2022/06/25 01:32:42;;;;;;;20.08;6.97;;;25.90;99.90;;;;;;6196848;23;20054;-94
2022/06/25 01:35:11;;;;;;;20.73;7.47;;;25.90;99.90;;;;;;6196813;23;20004;-93
2022/06/25 01:37:38;;;;;;;24.65;6.68;;;26.00;99.90;;;;;;6197202;23;20008;-94
2022/06/25 01:40:05;;;;;;;19.15;6.18;;;26.00;99.90;;;;;;6196359;23;20000;-93
2022/06/25 01:45:17;;;;;;;12.80;5.90;;;26.00;99.90;;;;;;6161636;23;20013;-94
2022/06/25 01:47:44;;;;;;;24.38;7.22;;;26.10;99.90;;;;;;6136654;23;20009;-94
2022/06/25 01:50:12;;;;;;;23.45;7.13;;;26.10;99.90;;;;;;6135963;23;20056;-94
2022/06/25 01:52:42;;;;;;;21.10;6.60;;;26.10;99.90;;;;;;6161002;23;20019;-95
2022/06/25 01:55:10;;;;;;;26.42;7.25;;;26.10;99.90;;;;;;6136474;23;20017;-95
2022/06/25 01:57:39;;;;;;;20.70;6.88;;;26.10;99.90;;;;;;6136730;23;20458;-93
2022/06/25 02:00:10;;;;;;;20.85;7.55;;;26.00;99.90;;;;;;6160758;23;20491;-94
2022/06/25 02:02:53;;;;;;;29.02;7.32;;;25.80;99.90;;;;;;6139278;23;20020;-91
2022/06/25 02:06:08;;;;;;;25.65;7.80;;;25.70;99.90;;;;;;6161649;23;20240;-92
2022/06/25 02:08:13;;;;;;;20.50;8.00;;;25.60;99.90;;;;;;6145545;23;20060;-92
2022/06/25 02:10:41;;;;;;;21.50;6.78;;;25.40;99.90;;;;;;6142392;23;20013;-92
2022/06/25 02:13:10;;;;;;;20.63;7.15;;;25.30;99.90;;;;;;6163228;23;20000;-93
2022/06/25 02:15:37;;;;;;;21.90;7.72;;;25.30;99.90;;;;;;6200051;23;20043;-95
2022/06/25 02:18:05;;;;;;;19.02;8.13;;;25.30;99.90;;;;;;6197656;23;20004;-92
2022/06/25 02:20:31;;;;;;;19.48;7.50;;;25.20;99.90;;;;;;6197148;23;20008;-94
2022/06/25 02:22:58;;;;;;;23.88;8.32;;;25.10;99.90;;;;;;6198497;23;20007;-93
2022/06/25 02:25:26;;;;;;;20.33;8.15;;;25.00;99.90;;;;;;6196690;23;20008;-92
2022/06/25 02:27:52;;;;;;;21.63;7.93;;;24.90;99.90;;;;;;6196239;23;20099;-93
2022/06/25 02:30:19;;;;;;;20.98;7.85;;;24.90;99.90;;;;;;6195873;23;20004;-94
2022/06/25 02:32:45;;;;;;;25.88;8.07;;;24.90;99.90;;;;;;6196176;23;20087;-94
2022/06/25 02:35:12;;;;;;;19.90;7.70;;;24.90;99.90;;;;;;6196500;22;20075;-94
2022/06/25 02:37:39;;;;;;;22.90;8.00;;;24.80;99.90;;;;;;6196883;23;20008;-93
2022/06/25 02:40:07;;;;;;;22.90;7.97;;;24.80;99.90;;;;;;6197568;23;20008;-93
2022/06/25 02:42:38;;;;;;;16.65;7.55;;;24.80;99.90;;;;;;6197500;23;20004;-93
2022/06/25 02:45:10;;;;;;;22.98;7.85;;;24.70;99.90;;;;;;6196595;23;20008;-93
2022/06/25 02:47:40;;;;;;;16.60;7.60;;;24.60;99.90;;;;;;6197451;23;20008;-92
2022/06/25 02:50:11;;;;;;;19.77;7.60;;;24.70;99.90;;;;;;6169866;23;20013;-92
2022/06/25 02:52:40;;;;;;;20.77;8.18;;;24.70;99.90;;;;;;6166338;23;20019;-93
2022/06/25 02:55:13;;;;;;;21.93;7.40;;;24.80;99.90;;;;;;6167167;23;20012;-92
2022/06/25 03:00:39;;;;;;;27.80;7.93;;;25.10;99.90;;;;;;6192194;23;20015;-92
2022/06/25 03:03:06;;;;;;;26.92;7.80;;;25.10;99.90;;;;;;6167501;23;20032;-91
2022/06/25 03:05:33;;;;;;;25.15;7.75;;;25.20;99.90;;;;;;6167916;23;20411;-93
2022/06/25 03:08:01;;;;;;;24.13;7.07;;;25.30;99.90;;;;;;6171861;23;20024;-90
2022/06/25 03:10:28;;;;;;;23.02;7.20;;;25.40;99.90;;;;;;6182566;23;20008;-91
2022/06/25 03:12:57;;;;;;;20.52;7.38;;;25.50;99.90;;;;;;6173995;23;20028;-91
2022/06/25 03:15:33;;;;;;;18.83;6.97;;;25.50;99.90;;;;;;6167032;23;20013;-90
2022/06/25 03:18:00;;;;;;;27.05;7.88;;;25.40;99.90;;;;;;6168832;23;20008;-92
2022/06/25 03:20:56;;;;;;;19.45;6.75;;;25.30;99.90;;;;;;6178501;23;20003;-92
2022/06/25 03:23:24;;;;;;;23.92;6.95;;;25.20;99.90;;;;;;6165948;23;20024;-90
2022/06/25 03:25:53;;;;;;;18.98;7.03;;;25.20;99.90;;;;;;6165915;23;20074;-91
2022/06/25 03:28:20;;;;;;;20.45;6.80;;;25.20;99.90;;;;;;6165597;23;20005;-91
2022/06/25 03:30:48;;;;;;;18.00;6.63;;;25.30;99.90;;;;;;6166805;23;20005;-91
2022/06/25 03:33:15;;;;;;;25.15;6.22;;;25.40;99.90;;;;;;6165573;23;20020;-92
2022/06/25 03:36:05;;;;;;;20.63;6.18;;;25.60;99.90;;;;;;6183739;23;20088;-91
2022/06/25 03:38:37;;;;;;;15.23;6.05;;;25.70;99.90;;;;;;6166297;23;20005;-93
2022/06/25 03:43:56;;;;;;;16.73;5.63;;;26.00;99.90;;;;;;6190014;23;20012;-92
2022/06/25 03:46:23;;;;;;;15.52;5.93;;;26.10;99.90;;;;;;6165144;23;20021;-93
2022/06/25 03:48:50;;;;;;;17.80;4.95;;;26.20;99.90;;;;;;6175299;23;20123;-91
2022/06/25 03:51:54;;;;;;;21.00;5.93;;;26.30;99.90;;;;;;6143747;23;20363;-92
2022/06/25 03:54:22;;;;;;;15.25;5.22;;;26.40;99.90;;;;;;6125742;23;20006;-91
2022/06/25 03:56:48;;;;;;;25.00;6.47;;;26.60;99.90;;;;;;6100700;23;20088;-93
2022/06/25 03:59:17;;;;;;;15.23;5.60;;;26.70;99.90;;;;;;6100577;23;20088;-91
2022/06/25 04:01:45;;;;;;;24.08;6.03;;;26.80;99.90;;;;;;6100717;23;20010;-91
2022/06/25 04:04:14;;;;;;;16.55;5.90;;;26.80;99.90;;;;;;6102568;23;20016;-90
2022/06/25 04:06:41;;;;;;;20.58;5.40;;;26.90;99.90;;;;;;6103946;23;20013;-90
2022/06/25 04:09:08;;;;;;;24.00;5.55;;;27.00;99.90;;;;;;6103375;23;20033;-90
2022/06/25 04:11:35;;;;;;;22.55;5.72;;;27.10;99.90;;;;;;6103782;23;20012;-93
2022/06/25 04:14:04;;;;;;;22.13;6.15;;;27.20;99.90;;;;;;6102148;23;20010;-92
2022/06/25 04:16:31;;;;;;;25.33;6.60;;;27.30;99.90;;;;;;6102374;23;20060;-92
2022/06/25 04:19:09;;;;;;;17.00;5.97;;;27.40;99.90;;;;;;6102311;23;20049;-91
2022/06/25 04:21:36;;;;;;;20.38;7.03;;;27.50;99.90;;;;;;6103216;23;20017;-91
2022/06/25 04:24:04;;;;;;;19.90;6.45;;;27.60;99.90;;;;;;6101756;23;20376;-90
2022/06/25 04:26:32;;;;;;;18.60;7.18;;;27.70;99.90;;;;;;6178747;23;20043;-91
2022/06/25 04:29:05;;;;;;;24.75;7.28;;;27.80;99.90;;;;;;6196892;23;20004;-92
2022/06/25 04:31:38;;;;;;;17.88;5.30;;;27.90;99.90;;;;;;6197770;23;20034;-91
2022/06/25 04:34:10;;;;;;;22.98;6.43;;;28.00;99.90;;;;;;6197288;23;20033;-94
2022/06/25 04:36:37;;;;;;;18.55;4.93;;;28.30;99.90;;;;;;6196668;23;20046;-91
2022/06/25 04:39:15;;;;;;;17.95;5.22;;;28.70;99.90;;;;;;6199156;23;20007;-91
2022/06/25 04:41:46;;;;;;;26.23;7.35;;;29.40;99.90;;;;;;6197455;23;20015;-92
2022/06/25 04:44:22;;;;;;;22.90;6.30;;;30.30;99.90;;;;;;6199174;23;20004;-92
2022/06/25 04:46:49;;;;;;;23.27;6.40;;;31.20;99.90;;;;;;6197124;23;20016;-92
2022/06/25 04:49:20;;;;;;;36.78;7.05;;;32.00;99.90;;;;;;6197474;23;20431;-93
2022/06/25 04:51:48;;;;;;;27.27;8.13;;;32.80;99.90;;;;;;6197847;23;20043;-93
2022/06/25 04:54:15;;;;;;;31.83;7.82;;;33.10;99.90;;;;;;6197639;23;20008;-92
2022/06/25 04:56:44;;;;;;;23.15;8.30;;;33.50;99.90;;;;;;6197150;23;20007;-91
2022/06/25 04:59:13;;;;;;;27.08;8.57;;;34.10;99.90;;;;;;6196882;23;20189;-92
2022/06/25 05:01:59;;;;;;;25.15;9.10;;;34.50;99.90;;;;;;6226205;23;20503;-93
2022/06/25 05:04:44;;;;;;;28.17;9.38;;;35.30;99.90;;;;;;6226253;23;20019;-92
2022/06/25 05:07:11;;;;;;;25.60;9.60;;;35.40;99.90;;;;;;6196356;23;20346;-92
2022/06/25 05:09:39;;;;;;;24.35;9.35;;;35.40;99.90;;;;;;6196557;23;20007;-91
2022/06/25 05:12:06;;;;;;;23.73;10.30;;;35.70;99.90;;;;;;6196507;23;20093;-92
2022/06/25 05:14:37;;;;;;;22.23;9.48;;;36.10;99.90;;;;;;6197521;23;20004;-93
2022/06/25 05:17:04;;;;;;;16.20;10.25;;;36.40;99.90;;;;;;6196259;23;20004;-92
2022/06/25 05:19:34;;;;;;;17.25;10.55;;;36.50;99.90;;;;;;6197215;23;20008;-93
2022/06/25 05:22:01;;;;;;;22.17;9.90;;;36.70;99.90;;;;;;6221228;23;20004;-93
2022/06/25 05:24:28;;;;;;;20.27;10.20;;;36.90;99.90;;;;;;6196861;23;20442;-92
2022/06/25 05:26:55;;;;;;;18.73;9.90;;;37.30;99.90;;;;;;6224480;23;20020;-92
2022/06/25 05:29:22;;;;;;;22.02;11.13;;;37.20;99.90;;;;;;6197443;23;20004;-93
2022/06/25 05:31:49;;;;;;;23.00;11.43;;;37.30;99.90;;;;;;6196416;23;20542;-93
2022/06/25 05:34:16;;;;;;;24.38;11.52;;;37.40;99.90;;;;;;6196466;23;20426;-93
2022/06/25 05:37:14;;;;;;;22.63;11.43;;;37.50;99.90;;;;;;6221216;23;20012;-93
2022/06/25 05:39:40;;;;;;;21.45;11.32;;;37.90;99.90;;;;;;6221371;23;20385;-92
2022/06/25 05:42:07;;;;;;;18.33;11.18;;;38.40;99.90;;;;;;6196941;23;20008;-93
2022/06/25 05:44:34;;;;;;;28.20;11.98;;;38.20;99.90;;;;;;6225759;23;20004;-92
2022/06/25 05:47:00;;;;;;;19.40;11.32;;;38.40;99.90;;;;;;6201025;23;20016;-91
2022/06/25 05:49:27;;;;;;;19.58;11.68;;;38.80;99.90;;;;;;6220745;23;20521;-91
2022/06/25 05:51:54;;;;;;;22.40;11.68;;;38.80;99.90;;;;;;6196157;23;20035;-90
2022/06/25 05:54:21;;;;;;;21.75;11.30;;;38.80;99.90;;;;;;6221086;23;20370;-93
2022/06/25 05:56:47;;;;;;;17.52;11.60;;;38.80;99.90;;;;;;6195754;23;20008;-92
2022/06/25 05:59:14;;;;;;;20.67;12.07;;;38.90;99.90;;;;;;6220527;23;20122;-92
2022/06/25 06:01:41;;;;;;;18.35;11.40;;;39.60;99.90;;;;;;6195493;23;20040;-91
2022/06/25 06:04:07;;;;;;;19.27;11.85;;;39.00;99.90;;;;;;6196164;22;20004;-91
2022/06/25 06:06:34;;;;;;;17.15;11.10;;;38.80;99.90;;;;;;6196294;23;20016;-91
2022/06/25 06:09:03;;;;;;;21.45;11.48;;;38.80;99.90;;;;;;6220713;23;20011;-92
2022/06/25 06:11:29;;;;;;;16.27;11.25;;;39.60;99.90;;;;;;6195893;23;20075;-90
2022/06/25 06:13:56;;;;;;;21.02;11.57;;;39.80;99.90;;;;;;6220731;23;20004;-91
2022/06/25 06:16:23;;;;;;;27.55;11.38;;;39.60;99.90;;;;;;6199465;23;20012;-91
2022/06/25 06:18:49;;;;;;;20.58;11.60;;;39.60;99.90;;;;;;6220486;23;20012;-92
2022/06/25 06:21:16;;;;;;;15.75;11.18;;;39.90;99.90;;;;;;6195306;23;20004;-91
2022/06/25 06:23:42;;;;;;;26.60;11.85;;;39.90;99.90;;;;;;6220372;23;20430;-91
2022/06/25 06:26:09;;;;;;;22.67;11.35;;;39.90;99.90;;;;;;6195440;23;20499;-92
2022/06/25 06:28:36;;;;;;;20.63;12.27;;;39.90;99.10;;;;;;6196023;23;20079;-93
2022/06/25 06:31:02;;;;;;;17.13;10.73;;;40.30;98.40;;;;;;6196417;23;20050;-90
2022/06/25 06:33:29;;;;;;;18.58;11.05;;;40.00;97.80;;;;;;6220694;23;20008;-90
2022/06/25 06:35:55;;;;;;;20.65;11.32;;;39.20;97.60;;;;;;6195917;23;20004;-90
2022/06/25 06:38:22;;;;;;;20.60;11.25;;;38.20;97.80;;;;;;6196111;23;20014;-92
2022/06/25 06:40:48;;;;;;;15.88;10.68;;;37.80;97.90;;;;;;6197678;23;20004;-92
2022/06/25 06:43:15;;;;;;;17.35;11.13;;;38.00;97.60;;;;;;6191945;22;20008;-91
2022/06/25 06:45:42;;;;;;;20.50;11.38;;;37.50;97.80;;;;;;6196280;23;20012;-93
2022/06/25 06:48:08;;;;;;;30.13;10.98;;;37.60;97.50;;;;;;6225688;23;20012;-91
2022/06/25 06:50:35;;;;;;;22.33;11.27;;;37.80;97.40;;;;;;6198448;23;20012;-92
2022/06/25 06:53:01;;;;;;;19.60;10.75;;;37.60;97.40;;;;;;6197221;23;20427;-91
2022/06/25 06:55:31;;;;;;;15.07;10.18;;;38.00;97.10;;;;;;6197005;23;20007;-92
2022/06/25 06:57:58;;;;;;;16.35;10.27;;;37.60;97.40;;;;;;6197787;23;20012;-92
2022/06/25 07:00:25;;;;;;;23.73;11.13;;;37.60;97.90;;;;;;6197474;23;20011;-92
2022/06/25 07:02:51;;;;;;;15.65;10.00;;;37.80;97.70;;;;;;6198209;23;20083;-92
2022/06/25 07:05:18;;;;;;;18.20;10.30;;;38.30;97.40;;;;;;6198311;23;20031;-91
2022/06/25 07:07:47;;;;;;;22.30;11.00;;;38.70;96.90;;;;;;6196447;23;20028;-91
2022/06/25 07:10:15;;;;;;;15.50;10.43;;;39.60;96.00;;;;;;6198793;23;20039;-92
2022/06/25 07:12:41;;;;;;;19.55;11.02;;;39.80;95.50;;;;;;6197461;23;20007;-91
2022/06/25 07:15:09;;;;;;;22.92;10.80;;;39.50;95.80;;;;;;6197015;23;20004;-91
2022/06/25 07:17:36;;;;;;;16.45;10.82;;;39.20;95.80;;;;;;6196523;23;20449;-92
2022/06/25 07:20:04;;;;;;;24.63;11.40;;;39.60;95.40;;;;;;6196841;23;20062;-92
2022/06/25 07:22:30;;;;;;;23.17;11.75;;;39.30;95.00;;;;;;6195889;23;20004;-91
2022/06/25 07:24:57;;;;;;;21.08;10.90;;;39.20;95.30;;;;;;6196487;23;20024;-91
2022/06/25 07:27:24;;;;;;;22.85;11.55;;;38.90;95.40;;;;;;6195760;23;20012;-92
2022/06/25 07:29:50;;;;;;;22.85;10.52;;;38.40;95.50;;;;;;6195513;23;20008;-89
2022/06/25 07:32:17;;;;;;;17.60;10.27;;;38.00;96.00;;;;;;6197108;23;20015;-90
2022/06/25 07:34:43;;;;;;;17.60;10.50;;;38.10;96.00;;;;;;6197045;23;20034;-90
2022/06/25 07:37:10;;;;;;;19.98;9.55;;;38.70;95.60;;;;;;6196889;23;20011;-90
2022/06/25 07:39:36;;;;;;;18.92;10.00;;;38.90;95.80;;;;;;6198475;23;20039;-91
2022/06/25 07:42:04;;;;;;;14.98;9.70;;;39.20;95.10;;;;;;6197776;23;20062;-91
2022/06/25 07:44:31;;;;;;;18.35;9.73;;;39.60;94.70;;;;;;6198046;23;20000;-90
2022/06/25 07:46:57;;;;;;;18.17;9.65;;;39.60;94.70;;;;;;6197665;23;20020;-91
2022/06/25 07:49:24;;;;;;;17.45;9.20;;;39.20;94.70;;;;;;6196749;23;20099;-91
2022/06/25 07:52:00;;;;;;;14.63;9.65;;;39.10;94.60;;;;;;6197579;23;20418;-90
2022/06/25 07:54:29;;;;;;;21.13;10.68;;;38.90;94.80;;;;;;6197766;23;20083;-91
2022/06/25 07:56:58;;;;;;;16.48;9.65;;;39.40;94.40;;;;;;6222454;23;20039;-91
2022/06/25 07:59:25;;;;;;;14.18;9.88;;;39.00;94.60;;;;;;6198380;23;20004;-91
2022/06/25 08:01:52;;;;;;;18.00;9.27;;;38.50;94.90;;;;;;6197660;23;20342;-89
2022/06/25 08:04:22;;;;;;;16.45;9.18;;;38.50;94.90;;;;;;6198010;23;20004;-90
2022/06/25 08:06:48;;;;;;;18.95;11.23;;;38.20;94.80;;;;;;6198788;23;20054;-91
2022/06/25 08:09:15;;;;;;;12.93;9.35;;;38.20;94.90;;;;;;6196877;23;20108;-91
2022/06/25 08:11:41;;;;;;;20.27;9.75;;;38.40;94.60;;;;;;6197667;23;20099;-90
2022/06/25 08:14:08;;;;;;;17.67;8.95;;;38.30;94.60;;;;;;6197778;23;20064;-90
2022/06/25 08:16:37;;;;;;;18.65;10.70;;;38.20;94.90;;;;;;6197696;23;20004;-90
2022/06/25 08:19:05;;;;;;;23.60;11.50;;;38.10;95.20;;;;;;6197404;23;20008;-91
2022/06/25 08:21:32;;;;;;;20.45;10.48;;;38.20;94.50;;;;;;6223210;23;20008;-90
2022/06/25 08:23:59;;;;;;;17.98;10.38;;;38.20;94.90;;;;;;6197376;22;20027;-91
2022/06/25 08:26:26;;;;;;;18.80;10.05;;;37.90;94.60;;;;;;6197088;23;20027;-92
2022/06/25 08:28:52;;;;;;;19.55;10.23;;;38.10;95.10;;;;;;6222304;23;20130;-92
2022/06/25 08:31:19;;;;;;;22.38;10.63;;;38.30;95.10;;;;;;6197304;23;20387;-91
2022/06/25 08:33:46;;;;;;;14.68;9.73;;;38.10;95.40;;;;;;6222417;23;20004;-92
2022/06/25 08:36:12;;;;;;;22.45;10.57;;;38.30;94.70;;;;;;6196866;23;20073;-91
2022/06/25 08:38:40;;;;;;;20.25;10.43;;;38.20;94.90;;;;;;6198955;22;20134;-90
2022/06/25 08:41:08;;;;;;;16.35;10.95;;;38.20;94.50;;;;;;6198540;23;20322;-90
2022/06/25 08:43:36;;;;;;;20.10;10.43;;;38.40;94.80;;;;;;6198345;23;20088;-90
2022/06/25 08:46:04;;;;;;;22.30;10.48;;;38.30;94.50;;;;;;6225421;23;20024;-89
2022/06/25 08:48:34;;;;;;;22.73;10.70;;;38.30;94.30;;;;;;6196885;22;20031;-91
2022/06/25 08:51:04;;;;;;;22.25;10.25;;;37.40;94.90;;;;;;6196899;23;20046;-90
2022/06/25 08:53:35;;;;;;;22.13;11.25;;;37.20;95.10;;;;;;6221866;23;20027;-91
2022/06/25 08:56:02;;;;;;;13.27;10.15;;;37.20;94.90;;;;;;6196999;23;20031;-92
2022/06/25 08:58:29;;;;;;;15.70;10.25;;;37.20;94.80;;;;;;6197373;23;20032;-93
2022/06/25 09:00:56;;;;;;;20.58;10.30;;;37.20;94.80;;;;;;6221746;23;20008;-92
2022/06/25 09:03:23;;;;;;;17.77;11.68;;;37.40;94.70;;;;;;6198601;23;19999;-91
2022/06/25 09:05:50;;;;;;;22.13;10.57;;;37.40;94.80;;;;;;6221568;23;20484;-92
2022/06/25 09:08:17;;;;;;;17.13;10.10;;;37.50;94.90;;;;;;6196010;23;20377;-92
2022/06/25 09:10:47;;;;;;;19.55;10.40;;;37.40;94.80;;;;;;6196480;23;20437;-91
2022/06/25 09:13:14;;;;;;;17.50;10.20;;;37.50;94.50;;;;;;6221334;23;20012;-93
2022/06/25 09:15:45;;;;;;;25.20;11.45;;;37.20;94.60;;;;;;6196587;23;20026;-93
2022/06/25 09:18:15;;;;;;;22.23;11.07;;;37.40;94.70;;;;;;6221095;23;20062;-93
2022/06/25 09:21:10;;;;;;;25.23;12.07;;;37.50;94.20;;;;;;6196375;23;20055;-92
2022/06/25 09:24:01;;;;;;;19.92;11.35;;;37.50;94.20;;;;;;6196108;23;20397;-92
2022/06/25 09:26:29;;;;;;;20.75;11.02;;;38.00;93.90;;;;;;6224714;23;20016;-92
2022/06/25 09:29:01;;;;;;;16.70;11.07;;;38.10;93.70;;;;;;6201264;23;20031;-93
2022/06/25 09:31:38;;;;;;;16.73;10.30;;;37.90;93.90;;;;;;6198223;23;20004;-92
2022/06/25 09:34:07;;;;;;;26.00;10.80;;;37.40;93.80;;;;;;6221069;23;20012;-92
2022/06/25 09:36:34;;;;;;;23.08;10.30;;;37.60;93.70;;;;;;6195752;23;20346;-93
2022/06/25 09:39:01;;;;;;;16.52;10.80;;;37.50;93.70;;;;;;6221400;23;20008;-92
2022/06/25 09:41:50;;;;;;;17.45;10.68;;;36.80;93.90;;;;;;6196199;23;20173;-92
2022/06/25 09:44:21;;;;;;;16.17;11.18;;;36.50;94.80;;;;;;6196312;23;20008;-92
2022/06/25 09:47:01;;;;;;;19.02;11.05;;;36.20;94.50;;;;;;6220913;23;20019;-92
2022/06/25 09:49:28;;;;;;;26.63;11.35;;;36.60;94.60;;;;;;6220692;23;20020;-93
2022/06/25 09:52:02;;;;;;;15.65;9.98;;;37.10;94.30;;;;;;6221997;23;20007;-91
2022/06/25 09:54:30;;;;;;;18.48;10.65;;;37.20;94.20;;;;;;6196477;23;20334;-93
2022/06/25 09:56:58;;;;;;;14.55;9.95;;;37.00;94.00;;;;;;6196180;23;20008;-92
2022/06/25 09:59:31;;;;;;;21.45;10.75;;;36.90;94.10;;;;;;6196232;23;20035;-93
2022/06/25 10:02:01;;;;;;;15.38;10.23;;;37.30;93.60;;;;;;6198611;23;20012;-93
2022/06/25 10:04:31;;;;;;;22.52;10.52;;;37.20;93.60;;;;;;6221220;23;20023;-94
2022/06/25 10:07:02;;;;;;;19.05;10.10;;;37.10;93.40;;;;;;6195709;23;20024;-93
2022/06/25 10:09:31;;;;;;;30.15;12.02;;;36.40;94.10;;;;;;6220994;23;20008;-96
2022/06/25 10:11:57;;;;;;;17.90;9.88;;;36.50;94.10;;;;;;6196005;23;20008;-94
2022/06/25 10:14:25;;;;;;;19.70;11.18;;;36.80;93.30;;;;;;6196103;23;20058;-91
2022/06/25 10:16:54;;;;;;;15.32;9.38;;;36.70;93.10;;;;;;6196092;23;20003;-93
2022/06/25 10:19:24;;;;;;;16.55;9.60;;;37.10;93.10;;;;;;6206757;22;20004;-92
2022/06/25 10:21:51;;;;;;;21.38;11.13;;;37.60;93.00;;;;;;6210906;23;20008;-92
2022/06/25 10:24:19;;;;;;;17.63;10.73;;;37.80;92.30;;;;;;6197295;23;20020;-92
2022/06/25 10:26:45;;;;;;;16.27;10.40;;;37.10;92.60;;;;;;6221600;23;20107;-93
2022/06/25 10:29:28;;;;;;;13.65;9.50;;;37.10;92.80;;;;;;6196334;23;20000;-94
2022/06/25 10:32:16;;;;;;;16.88;12.60;;;37.40;92.70;;;;;;6196225;23;20008;-93
2022/06/25 10:34:53;;;;;;;19.90;12.02;;;38.10;92.30;;;;;;6196347;23;20008;-93
2022/06/25 10:37:20;;;;;;;17.88;11.98;;;38.10;91.90;;;;;;6195891;23;20087;-92
2022/06/25 10:39:56;;;;;;;21.52;11.88;;;38.10;92.80;;;;;;6195896;23;20034;-93
2022/06/25 10:45:15;;;;;;;20.83;11.32;;;37.80;92.30;;;;;;6221629;22;20062;-93
2022/06/25 10:47:52;;;;;;;13.95;10.43;;;37.70;91.90;;;;;;6197110;23;20004;-93
2022/06/25 10:50:22;;;;;;;19.30;10.93;;;37.70;92.80;;;;;;6168827;23;20020;-94
2022/06/25 10:53:10;;;;;;;23.65;10.95;;;37.90;92.70;;;;;;6168440;23;20008;-94
2022/06/25 10:55:58;;;;;;;14.98;10.35;;;37.80;90.90;;;;;;6168118;23;20008;-93
2022/06/25 10:58:27;;;;;;;22.77;11.63;;;37.40;92.10;;;;;;6170124;23;20008;-93
2022/06/25 11:01:02;;;;;;;21.17;10.40;;;36.90;94.90;;;;;;6167983;23;20009;-93
2022/06/25 11:03:28;;;;;;;24.00;11.23;;;36.30;96.00;;;;;;6167198;23;20312;-93
2022/06/25 11:06:00;;;;;;;15.00;10.90;;;36.10;96.10;;;;;;6166483;23;20005;-93
2022/06/25 11:08:34;;;;;;;18.80;10.48;;;36.20;96.50;;;;;;6166275;23;20020;-93
2022/06/25 11:11:00;;;;;;;;;;;35.70;96.80;;;;;;6167961;23;20064;-93
2022/06/25 11:13:27;;;;;;;20.95;10.90;;;35.60;97.40;;;;;;6167384;23;20311;-93
2022/06/25 11:15:54;;;;;;;20.35;10.52;;;35.30;97.60;;;;;;6168413;23;20032;-94
2022/06/25 11:18:20;;;;;;;19.00;11.40;;;35.20;97.80;;;;;;6169712;23;20040;-94
2022/06/25 11:20:47;;;;;;;18.60;10.82;;;35.50;97.60;;;;;;6169589;23;20347;-93
2022/06/25 11:23:17;;;;;;;20.67;11.43;;;35.40;97.80;;;;;;6169418;23;20009;-93
2022/06/25 11:28:52;;;;;;;16.60;9.85;;;35.30;98.60;;;;;;6196098;23;20044;-93
2022/06/25 11:31:22;;;;;;;19.25;10.35;;;35.00;99.10;;;;;;6169431;23;20100;-93
2022/06/25 11:33:52;;;;;;;23.67;10.30;;;34.50;99.00;;;;;;6169071;23;20015;-94
2022/06/25 11:36:20;;;;;;;24.42;10.10;;;34.50;99.20;;;;;;6167508;23;20388;-93
2022/06/25 11:38:54;;;;;;;20.55;10.50;;;34.70;98.80;;;;;;6167598;23;20079;-93
2022/06/25 11:41:30;;;;;;;15.68;9.88;;;34.70;98.70;;;;;;6167396;23;20019;-93
2022/06/25 11:44:05;;;;;;;21.95;10.13;;;34.90;98.80;;;;;;6167228;23;20020;-93
2022/06/25 11:46:36;;;;;;;17.05;11.05;;;35.10;98.40;;;;;;6167476;23;20046;-94
2022/06/25 11:49:06;;;;;;;21.08;10.90;;;34.50;98.80;;;;;;6179166;23;20316;-94
2022/06/25 11:51:33;;;;;;;15.52;10.00;;;34.60;98.90;;;;;;6223879;23;20389;-92
2022/06/25 11:54:06;;;;;;;21.65;10.40;;;34.30;98.60;;;;;;6198427;23;20042;-93
2022/06/25 11:56:33;;;;;;;18.35;10.43;;;34.50;98.60;;;;;;6199283;23;20012;-94
2022/06/25 11:58:59;;;;;;;20.25;10.25;;;34.60;98.70;;;;;;6200876;22;20035;-92
2022/06/25 12:01:30;;;;;;;23.35;10.40;;;34.60;98.50;;;;;;6201608;23;20008;-94
2022/06/25 12:03:57;;;;;;;21.00;10.65;;;34.60;98.80;;;;;;6226147;23;20004;-93
2022/06/25 12:06:25;;;;;;;22.75;10.40;;;34.80;98.20;;;;;;6201629;23;20028;-94
2022/06/25 12:08:52;;;;;;;17.17;10.25;;;34.60;98.10;;;;;;6203395;23;20008;-93
2022/06/25 12:11:19;;;;;;;19.60;10.73;;;34.60;98.30;;;;;;6201485;23;20038;-93
2022/06/25 12:13:45;;;;;;;16.10;11.07;;;34.80;98.60;;;;;;6226185;23;20043;-94
2022/06/25 12:16:12;;;;;;;17.08;10.75;;;34.60;98.00;;;;;;6198235;23;20008;-93
2022/06/25 12:18:43;;;;;;;18.33;11.02;;;34.70;98.50;;;;;;6197852;23;20014;-93
2022/06/25 12:21:18;;;;;;;17.40;10.93;;;34.90;97.60;;;;;;6223127;23;20075;-94
2022/06/25 12:23:57;;;;;;;21.58;11.63;;;34.70;97.40;;;;;;6224194;23;20011;-95
2022/06/25 12:26:51;;;;;;;19.50;10.73;;;34.60;97.60;;;;;;6222985;23;20020;-95
2022/06/25 12:29:23;;;;;;;23.58;10.60;;;34.60;97.70;;;;;;6219611;23;20008;-94
2022/06/25 12:32:00;;;;;;;14.13;10.63;;;34.80;97.70;;;;;;6199294;23;20012;-94
2022/06/25 12:34:27;;;;;;;17.70;10.35;;;34.70;97.40;;;;;;6201489;23;20008;-94
2022/06/25 12:36:56;;;;;;;18.45;10.68;;;34.90;97.40;;;;;;6197422;23;20333;-94
2022/06/25 12:39:37;;;;;;;14.45;10.93;;;35.40;97.50;;;;;;6221854;23;20035;-94
2022/06/25 12:42:12;;;;;;;15.70;10.20;;;35.60;97.80;;;;;;6224402;22;20024;-94
2022/06/25 12:44:50;;;;;;;13.63;10.07;;;35.00;99.60;;;;;;6198337;23;20031;-94
2022/06/25 12:47:18;;;;;;;15.32;9.93;;;34.60;99.90;;;;;;6196590;23;20020;-94
2022/06/25 12:49:54;;;;;;;15.80;10.50;;;34.40;99.90;;;;;;6176093;23;20017;-94
2022/06/25 12:52:38;;;;;;;17.05;11.20;;;34.30;99.90;;;;;;6166492;23;20016;-93
2022/06/25 12:55:06;;;;;;;15.35;10.13;;;34.40;99.90;;;;;;6166588;23;20008;-94
2022/06/25 12:57:37;;;;;;;16.88;10.40;;;34.60;99.90;;;;;;6166980;23;20509;-93
2022/06/25 13:00:16;;;;;;;14.82;11.00;;;34.40;99.90;;;;;;6166764;23;20019;-94